Latest Weather Observations for Cape Byron

IDN60801

Issued at 10:03 pm EDT Tuesday 24 January 2017 (issued every 30 minutes, with the page automatically refreshed every 10 minutes)

About weather observations | Map of weather stations | Latest weather observations for NSW | Other Formats
Station Details ID: 058216 Name: CAPE BYRON AWS Lat: -28.64 Lon: 153.64 Height: 95.0 m
Data from the previous 72 hours. | See also: Recent months at Cape Byron
Date/Time
EDT
Temp
°C
App
Temp
°C
Dew
Point
°C
Rel
Hum
%
Delta-T
°C
Wind Press
QNH
hPa
Press
MSL
hPa
Rain since
9am
mm
Dir  Spd
km/h
Gust
km/h
Spd
kts
Gust
kts
24/10:00pm 25.3 23.4 22.0 82 2.2 N 35 43 19 23 1013.8 1013.3 -
24/09:30pm 25.3 23.9 22.0 82 2.2 N 32 43 17 23 1013.8 1013.3 0.0
24/09:00pm 25.4 23.8 21.5 79 2.6 N 32 41 17 22 1013.5 1013.0 0.0
24/08:30pm 25.6 23.6 20.8 75 3.2 N 32 43 17 23 1013.3 1012.8 0.0
24/08:00pm 25.6 23.3 20.2 72 3.5 N 32 46 17 25 1013.0 1012.5 0.0
24/07:30pm 25.9 23.5 20.0 70 3.8 N 32 43 17 23 1012.7 1012.2 0.0
24/07:00pm 26.2 22.9 19.3 65 4.5 N 35 48 19 26 1012.5 1012.0 0.0
24/06:30pm 26.4 23.0 19.0 63 4.8 N 35 46 19 25 1012.1 1011.6 0.0
24/06:00pm 26.6 23.7 19.2 64 4.8 N 33 46 18 25 1012.1 1011.6 0.0
24/05:43pm 26.8 23.9 19.2 63 4.9 NNE 33 52 18 28 1012.1 1011.6 0.0
24/05:30pm 26.9 24.1 19.0 62 5.1 NNE 32 44 17 24 1012.1 1011.6 0.0
24/05:00pm 27.1 23.4 18.4 59 5.6 NNE 35 48 19 26 1012.2 1011.7 0.0
24/04:30pm 27.3 24.0 18.3 58 5.8 NNE 33 50 18 27 1012.4 1011.9 0.0
24/04:00pm 27.3 23.6 18.3 58 5.8 NNE 35 54 19 29 1012.5 1012.0 0.0
24/03:46pm 27.4 23.6 18.1 57 5.9 NNE 35 54 19 29 1012.6 1012.1 0.0
24/03:30pm 27.5 24.0 17.9 55 6.1 NNE 33 46 18 25 1012.7 1012.2 0.0
24/03:07pm 27.4 24.0 18.1 57 5.9 NNE 33 52 18 28 1013.0 1012.5 0.0
24/03:00pm 27.6 23.9 18.3 57 5.9 NNE 35 48 19 26 1013.0 1012.5 0.0
24/02:37pm 27.6 23.8 18.0 55 6.1 NNE 35 54 19 29 1013.3 1012.8 0.0
24/02:30pm 27.7 24.2 17.8 54 6.3 NNE 33 48 18 26 1013.4 1012.9 0.0
24/02:00pm 27.7 23.9 17.3 53 6.6 NNE 33 48 18 26 1013.6 1013.1 0.0
24/01:30pm 27.6 23.6 16.6 51 6.9 NNE 33 48 18 26 1013.7 1013.2 0.0
24/01:00pm 27.8 23.7 16.4 50 7.1 NNE 33 50 18 27 1014.0 1013.5 0.0
24/12:45pm 27.8 24.2 17.3 52 6.6 NNE 32 50 17 27 1014.2 1013.7 0.0
24/12:30pm 27.5 23.5 16.1 49 7.1 NNE 32 48 17 26 1014.5 1014.0 0.0
24/12:23pm 27.7 24.1 16.3 49 7.1 NNE 30 48 16 26 1014.7 1014.2 0.0
24/12:00pm 27.9 25.5 17.4 52 6.6 NNE 26 35 14 19 1015.1 1014.6 0.0
24/11:30am 27.9 25.3 16.8 50 6.9 N 26 35 14 19 1015.4 1014.9 0.0
24/11:00am 27.6 25.0 15.9 49 7.2 N 24 33 13 18 1015.7 1015.2 0.0
24/10:30am 27.2 25.2 16.5 52 6.7 N 22 30 12 16 1016.3 1015.7 0.0
24/10:00am 26.8 25.3 16.7 54 6.3 N 20 28 11 15 1016.5 1015.9 0.0
24/09:30am 26.1 24.5 16.4 55 6.0 N 20 30 11 16 1016.6 1016.1 0.0
24/09:00am 25.4 24.1 16.8 59 5.3 N 19 30 10 16 1016.5 1015.9 0.0
24/08:30am 24.8 23.9 16.8 61 5.0 N 17 28 9 15 1016.6 1016.1 0.0
24/08:00am 24.1 22.7 16.6 63 4.6 N 19 28 10 15 1016.4 1015.8 0.0
24/07:30am 23.8 23.2 16.6 64 4.4 N 15 26 8 14 1016.3 1015.7 0.0
24/07:00am 23.5 23.0 16.8 66 4.1 N 15 22 8 12 1015.9 1015.4 0.0
24/06:30am 22.9 22.3 16.7 68 3.8 N 15 28 8 15 1015.7 1015.2 0.0
24/06:00am 22.9 21.9 16.7 68 3.8 N 17 24 9 13 1015.5 1015.0 0.0
24/05:30am 22.8 22.3 16.8 69 3.7 NNW 15 28 8 15 1015.3 1014.8 0.0
24/05:00am 22.6 22.3 17.3 72 3.3 N 15 20 8 11 1015.4 1014.9 0.0
24/04:30am 22.4 23.2 18.2 77 2.6 NNW 11 17 6 9 1015.4 1014.9 0.0
24/04:00am 22.5 23.4 17.6 74 3.0 N 9 19 5 10 1015.4 1014.9 0.0
24/03:30am 22.5 23.6 18.1 76 2.8 N 9 17 5 9 1015.3 1014.8 0.0
24/03:00am 22.4 23.7 18.4 78 2.5 N 9 19 5 10 1015.3 1014.8 0.0
24/02:30am 23.0 24.4 17.7 72 3.3 N 7 13 4 7 1015.6 1015.1 0.0
24/02:00am 23.2 23.0 17.7 71 3.4 NNW 15 24 8 13 1015.6 1015.1 0.0
24/01:30am 23.5 22.9 17.5 69 3.7 N 17 30 9 16 1015.9 1015.4 0.0
24/01:00am 23.5 22.7 17.9 71 3.5 N 19 30 10 16 1016.1 1015.6 0.0
24/12:30am 24.1 21.0 15.6 59 5.1 N 26 39 14 21 1016.7 1016.2 0.0
24/12:00am 24.3 21.5 16.3 61 4.9 N 26 35 14 19 1016.8 1016.3 0.0
 
Date/Time
EDT
Temp
°C
App
Temp
°C
Dew
Point
°C
Rel
Hum
%
Delta-T
°C
Wind Press
QNH
hPa
Press
MSL
hPa
Rain since
9am
mm
Dir  Spd
km/h
Gust
km/h
Spd
kts
Gust
kts
23/11:30pm 24.2 21.8 16.5 62 4.7 NNE 24 35 13 19 1016.8 1016.3 0.0
23/11:00pm 24.3 22.2 16.3 61 4.9 NNE 22 33 12 18 1017.1 1016.6 0.0
23/10:30pm 24.3 21.9 16.3 61 4.9 NNE 24 37 13 20 1016.9 1016.4 0.0
23/10:00pm 24.3 21.5 16.3 61 4.9 NNE 26 35 14 19 1017.0 1016.5 0.0
23/09:30pm 24.5 21.3 15.4 57 5.5 NNE 26 35 14 19 1017.1 1016.6 0.0
23/09:00pm 24.5 21.7 15.4 57 5.5 NNE 24 33 13 18 1016.8 1016.3 0.0
23/08:30pm 24.5 22.4 15.1 55 5.7 NNE 20 30 11 16 1016.5 1015.9 0.0
23/08:00pm 24.5 21.4 14.6 54 5.9 NE 24 33 13 18 1016.6 1016.1 0.0
23/07:30pm 24.8 20.3 14.9 54 5.9 NE 32 39 17 21 1016.4 1015.8 0.0
23/07:00pm 25.5 21.2 14.3 50 6.7 NE 30 35 16 19 1016.0 1015.5 0.0
23/06:30pm 26.1 22.6 15.5 52 6.5 NE 28 33 15 18 1015.5 1015.0 0.0
23/06:00pm 26.6 22.4 14.7 48 7.2 NE 30 39 16 21 1015.3 1014.8 0.0
23/05:30pm 26.5 22.6 14.3 47 7.3 NE 28 33 15 18 1015.1 1014.6 0.0
23/05:00pm 26.6 22.2 14.0 46 7.5 NE 30 35 16 19 1015.2 1014.7 0.0
23/04:30pm 27.3 24.3 14.7 46 7.6 NE 24 30 13 16 1015.4 1014.9 0.0
23/04:00pm 27.7 24.1 14.3 43 8.1 NE 26 32 14 17 1015.5 1015.0 0.0
23/03:30pm 29.3 26.8 16.1 44 8.2 NE 24 30 13 16 1015.7 1015.2 0.0
23/03:00pm 29.0 26.6 15.5 44 8.3 NE 22 30 12 16 1016.0 1015.5 0.0
23/02:30pm 30.0 29.5 17.8 48 7.8 ENE 17 22 9 12 1016.3 1015.7 0.0
23/02:00pm 29.3 28.5 17.2 48 7.6 NE 17 20 9 11 1016.6 1016.1 0.0
23/01:30pm 29.6 30.0 16.4 45 8.3 NE 9 13 5 7 1017.1 1016.6 0.0
23/01:00pm 28.9 29.0 16.5 47 7.7 ENE 11 13 6 7 1017.3 1016.8 0.0
23/12:30pm 27.9 28.4 16.5 50 7.1 ENE 9 13 5 7 1017.5 1017.0 0.0
23/12:00pm 27.4 27.7 16.1 50 7.0 E 9 15 5 8 1017.8 1017.3 0.0
23/11:30am 26.7 27.7 16.9 55 6.1 ENE 7 13 4 7 1018.1 1017.6 0.0
23/11:00am 26.7 27.8 16.6 54 6.3 ENE 6 9 3 5 1018.2 1017.7 0.0
23/10:30am 26.4 26.7 15.1 49 6.9 E 7 9 4 5 1018.2 1017.7 0.0
23/10:00am 25.5 26.2 14.6 51 6.5 ESE 4 7 2 4 1018.2 1017.7 0.0
23/09:30am 25.0 25.4 14.8 53 6.1 S 6 9 3 5 1018.0 1017.5 0.0
23/09:00am 24.3 24.6 15.0 56 5.6 S 7 13 4 7 1018.0 1017.5 0.0
23/08:30am 24.2 25.1 16.2 61 4.9 ESE 6 9 3 5 1017.9 1017.4 0.0
23/08:00am 23.7 23.8 14.4 56 5.5 ENE 7 13 4 7 1017.7 1017.2 0.0
23/07:30am 22.7 22.9 13.2 55 5.5 ENE 4 9 2 5 1017.5 1017.0 0.0
23/07:00am 22.2 21.2 13.5 57 5.0 E 11 17 6 9 1017.2 1016.7 0.0
23/06:30am 21.9 21.5 14.0 61 4.6 ESE 9 15 5 8 1016.9 1016.4 0.0
23/06:00am 21.9 21.6 14.3 62 4.5 ESE 9 17 5 9 1016.6 1016.1 0.0
23/05:30am 22.4 21.3 14.3 60 4.8 E 13 20 7 11 1016.3 1015.7 0.0
23/05:00am 22.4 22.5 15.5 65 4.1 ESE 9 15 5 8 1016.1 1015.6 0.0
23/04:30am 22.3 22.2 16.1 68 3.8 E 11 20 6 11 1015.8 1015.3 0.0
23/04:00am 22.5 22.1 16.1 67 3.9 E 13 20 7 11 1015.7 1015.2 0.0
23/03:30am 22.5 22.0 15.8 66 4.0 E 13 17 7 9 1015.8 1015.3 0.0
23/03:00am 22.6 23.0 16.4 68 3.8 E 9 17 5 9 1015.9 1015.4 0.0
23/02:30am 22.5 22.1 16.3 68 3.8 ENE 13 19 7 10 1016.1 1015.6 0.0
23/02:00am 22.6 22.7 16.4 68 3.8 E 11 17 6 9 1016.3 1015.7 0.0
23/01:30am 22.7 22.4 16.5 68 3.8 ENE 13 20 7 11 1016.4 1015.8 0.0
23/01:00am 22.9 22.6 16.4 67 4.0 ENE 13 19 7 10 1016.7 1016.2 0.0
23/12:30am 22.9 21.6 16.7 68 3.8 E 19 22 10 12 1017.1 1016.6 0.0
23/12:00am 23.0 21.4 16.1 65 4.2 ESE 19 24 10 13 1017.4 1016.9 0.0
 
Date/Time
EDT
Temp
°C
App
Temp
°C
Dew
Point
°C
Rel
Hum
%
Delta-T
°C
Wind Press
QNH
hPa
Press
MSL
hPa
Rain since
9am
mm
Dir  Spd
km/h
Gust
km/h
Spd
kts
Gust
kts
22/11:30pm 23.1 21.8 15.7 63 4.5 ESE 17 22 9 12 1017.7 1017.2 0.0
22/11:00pm 22.6 20.8 15.9 66 4.0 E 20 26 11 14 1017.8 1017.3 0.0
22/10:30pm 22.8 20.7 16.1 66 4.1 ESE 22 32 12 17 1017.7 1017.2 0.0
22/10:00pm 22.9 20.4 16.2 66 4.1 E 24 33 13 18 1017.7 1017.2 0.0
22/09:30pm 22.9 20.7 16.9 69 3.7 E 24 28 13 15 1017.6 1017.1 0.0
22/09:00pm 23.0 20.3 16.5 67 4.0 E 26 33 14 18 1017.4 1016.9 0.0
22/08:30pm 23.2 20.9 16.7 67 4.0 E 24 30 13 16 1017.3 1016.8 0.0
22/08:00pm 23.3 20.0 16.1 64 4.4 E 28 33 15 18 1016.9 1016.4 0.0
22/07:30pm 23.8 21.2 15.8 61 4.9 E 24 32 13 17 1016.6 1016.1 0.0
22/07:00pm 24.7 21.8 16.2 59 5.2 E 26 30 14 16 1016.3 1015.7 0.0
22/06:30pm 24.6 21.6 15.8 58 5.4 ESE 26 33 14 18 1016.0 1015.5 0.0
22/06:00pm 25.1 22.1 14.9 53 6.1 ESE 24 35 13 19 1015.8 1015.3 0.0
22/05:30pm 25.0 21.8 15.3 55 5.9 SE 26 33 14 18 1015.7 1015.2 0.0
22/05:00pm 25.3 23.0 16.7 59 5.3 ESE 24 30 13 16 1015.8 1015.3 0.0
22/04:30pm 25.7 22.6 16.5 56 5.7 ESE 28 33 15 18 1015.9 1015.4 0.0
22/04:00pm 26.1 23.2 16.1 54 6.1 SE 26 32 14 17 1016.3 1015.7 0.0
22/03:30pm 26.3 23.2 16.5 54 6.1 ESE 28 32 15 17 1016.4 1015.8 0.0
22/03:00pm 26.3 23.4 16.0 53 6.3 ESE 26 32 14 17 1016.5 1015.9 0.0
22/02:30pm 26.1 23.5 15.8 53 6.3 ESE 24 30 13 16 1016.7 1016.2 0.0
22/02:00pm 26.7 23.8 16.0 52 6.6 ESE 26 32 14 17 1017.0 1016.5 0.0
22/01:30pm 26.5 23.2 16.1 52 6.4 ESE 28 33 15 18 1017.2 1016.7 0.0
22/01:00pm 26.9 24.1 17.4 56 6.0 ESE 28 35 15 19 1017.3 1016.8 0.0
22/12:30pm 26.4 23.0 15.8 52 6.5 ESE 28 35 15 19 1017.4 1016.9 0.0
22/12:00pm 26.3 23.0 16.0 53 6.3 ESE 28 37 15 20 1017.6 1017.1 0.0
22/11:30am 26.5 22.8 16.1 52 6.4 ESE 30 35 16 19 1017.7 1017.2 0.0
22/11:00am 26.1 21.9 16.1 54 6.1 ESE 33 41 18 22 1017.7 1017.2 0.0
22/10:30am 25.8 22.1 16.9 58 5.5 SE 32 43 17 23 1017.5 1017.0 0.0
22/10:00am 24.9 21.2 15.0 54 5.9 SE 28 39 15 21 1017.7 1017.2 0.0
22/09:30am 24.4 22.3 17.1 63 4.5 SE 24 35 13 19 1017.6 1017.1 0.0
22/09:00am 23.0 21.2 19.6 81 2.2 ESE 28 33 15 18 1017.4 1016.9 0.6
22/08:38am 23.7 21.4 18.4 72 3.4 SE 28 46 15 25 1017.0 1016.5 0.6
22/08:30am 23.7 20.9 17.4 68 3.9 SE 28 37 15 20 1017.0 1016.5 0.6
22/08:00am 24.2 20.5 17.0 64 4.5 SE 32 43 17 23 1016.7 1016.2 0.6
22/07:30am 24.1 20.4 16.9 64 4.5 SE 32 44 17 24 1016.3 1015.7 0.6
22/07:00am 23.3 19.3 17.7 71 3.5 SE 35 43 19 23 1015.7 1015.2 0.6
22/06:30am 23.2 17.6 17.4 70 3.6 SE 43 50 23 27 1015.0 1014.5 0.6
22/06:24am 23.3 18.4 19.0 77 2.7 SE 43 54 23 29 1014.7 1014.2 0.6
22/06:00am 23.3 19.8 17.5 70 3.6 SE 32 44 17 24 1014.6 1014.1 0.6
22/05:30am 23.6 21.8 19.5 78 2.6 SSE 28 39 15 21 1014.6 1014.1 0.6
22/05:00am 23.6 20.4 18.5 73 3.2 SE 33 43 18 23 1014.1 1013.6 0.6
22/04:48am 23.5 20.9 18.6 74 3.1 SE 30 52 16 28 1014.1 1013.6 0.6
22/04:30am 23.6 21.0 19.9 80 2.4 SE 33 43 18 23 1014.1 1013.6 0.6
22/04:00am 23.5 21.6 19.4 78 2.6 SE 28 43 15 23 1014.0 1013.5 0.6
22/03:30am 23.7 21.5 18.6 73 3.2 SE 28 41 15 22 1014.2 1013.7 0.6
22/03:00am 23.6 21.0 18.7 74 3.1 SE 30 41 16 22 1014.2 1013.7 0.6
22/02:30am 23.7 20.7 18.6 73 3.2 SE 32 43 17 23 1014.1 1013.6 0.6
22/02:00am 23.6 20.8 19.5 78 2.6 SE 33 43 18 23 1014.1 1013.6 0.6
22/01:34am 23.5 20.8 18.4 73 3.2 SSE 30 48 16 26 1014.2 1013.7 0.6
22/01:30am 23.5 20.9 18.6 74 3.1 SSE 30 41 16 22 1014.3 1013.8 0.6
22/01:00am 23.0 20.6 20.0 83 1.9 SE 32 44 17 24 1014.6 1014.1 0.6
22/12:30am 23.6 21.6 20.7 84 1.9 SE 32 43 17 23 1014.7 1014.2 0.6
22/12:00am 22.6 23.0 20.9 90 1.1 S 20 30 11 16 1015.1 1014.6 0.6
 
Date/Time
EDT
Temp
°C
App
Temp
°C
Dew
Point
°C
Rel
Hum
%
Delta-T
°C
Wind Press
QNH
hPa
Press
MSL
hPa
Rain since
9am
mm
Dir  Spd
km/h
Gust
km/h
Spd
kts
Gust
kts
21/11:30pm 23.8 22.8 19.7 78 2.6 SSE 24 33 13 18 1015.2 1014.7 0.6
21/11:00pm 23.3 22.6 21.0 87 1.5 SSE 26 32 14 17 1015.2 1014.7 0.6
21/10:39pm 22.7 23.4 21.5 93 0.8 SSE 20 44 11 24 1015.2 1014.7 0.6
21/10:30pm 22.6 24.3 21.6 94 0.7 SSE 15 20 8 11 1015.0 1014.5 0.6

Other Formats:

Comma delimited format used in spreadsheet applications
http://www.bom.gov.au/fwo/IDN60801/IDN60801.94599.axf

JavaScript Object Notation format (JSON) in row-major order
http://www.bom.gov.au/fwo/IDN60801/IDN60801.94599.json